Flight Track Log - Related Links

Times and Time Zones

All times are in EDT time to prevent confusion due to time zone crossing. See the EJA952 flight status page for this flight to view local times or setup timezone preferences in your user account.

Time Position Orientation Groundspeed Altitude Reporting Facility
EDT Latitude Longitude Course Direction KTS MPH feet Rate Location/Type
Sun 12:43:20 AM 41.2167 -72.8667 323° Northwest 248 285 6,100  Level New York TRACON
Sun 12:44:20 AM 41.2667 -72.9167 323° Northwest 250 288 6,100  Level New York TRACON
Sun 12:45:20 AM 41.2667 -73.0000 270° West 245 282 6,100  Level New York TRACON
Sun 12:46:20 AM 41.2667 -73.1000 270° West 254 292 6,100  Level New York TRACON
Sun 12:47:20 AM 41.2667 -73.2000 270° West 257 296 6,100  Level New York TRACON
Sun 12:48:20 AM 41.2667 -73.3000 270° West 261 300 6,100  Level New York TRACON
Sun 12:49:20 AM 41.2833 -73.3833 285° West 262 302 6,100  Level New York TRACON
Sun 12:50:20 AM 41.2833 -73.4833 270° West 260 299 6,100  Level New York TRACON
Sun 12:51:20 AM 41.2833 -73.5833 270° West 260 299 6,100  Level New York TRACON
Sun 12:52:20 AM 41.2667 -73.6833 258° West 265 305 6,100 -350 Level New York TRACON
Sun 12:53:20 AM 41.2667 -73.7667 270° West 256 295 5,400 -1,050 Descending New York TRACON
Sun 12:54:20 AM 41.2333 -73.8500 242° Southwest 257 296 4,000 -1,263 Descending New York TRACON
Sun 12:55:14 AM 41.1833 -73.9167 225° Southwest 257 296 3,000 -500 Descending New York TRACON
Sun 12:56:08 AM 41.1500 -73.9667 228° Southwest 243 280 3,100 50 Climbing New York TRACON
Sun 12:57:14 AM 41.1000 -74.0333 225° Southwest 218 251 3,100  Level New York TRACON
Sun 12:58:14 AM 41.0500 -74.1000 225° Southwest 217 250 3,100 -53 Level New York TRACON
Sun 12:59:08 AM 41.0167 -74.1500 229° Southwest 222 255 3,000 -50 Descending New York TRACON
Sun 01:00:14 AM 40.9667 -74.2167 225° Southwest 228 262 3,000  Level New York TRACON
Sun 01:02:00 AM 40.8896 -74.3863 239° Southwest  Level FlightAware Approximate
Sun 01:09:00 AM 40.7993 -74.4149 163° South  Level Estimated
Sun 01:10:00 AM 40.7993 -74.4149 163° South  Level Estimated
Sun 01:11:00 AM 40.7993 -74.4149 163° South  Level Estimated
Sun 01:12:00 AM 40.7993 -74.4149 163° South  Level Estimated

Login

Don't have an account? Register now (free) for customized features, flight alerts, and more!